Time;durP1;ratioP1;P1;durP2;ratioP2;P2;SDS_P1;SDS_P2;PMS_P1;PMS_P2;Temp;Humidity;BMP_temperature;BMP_pressure;BME280_temperature;BME280_humidity;BME280_pressure;Samples;Min_cycle;Max_cycle;Signal;HPM_P1;HPM_P2
2022/07/03 00:01:47;;;;;;;1.90;1.70;;;24.40;56.40;;;24.65;39.90;98813.13;4983158;28;114042;-85
2022/07/03 00:04:14;;;;;;;2.67;1.70;;;24.30;56.40;;;24.63;40.04;98810.72;4984540;28;113415;-85
2022/07/03 00:06:40;;;;;;;2.57;1.60;;;24.30;56.80;;;24.63;40.11;98816.38;4980964;28;124537;-85
2022/07/03 00:09:07;;;;;;;2.40;1.70;;;24.30;57.00;;;24.59;40.17;98812.75;4973969;28;123215;-86
2022/07/03 00:11:33;;;;;;;2.53;1.83;;;24.30;57.20;;;24.57;40.35;98817.19;4981042;28;114447;-84
2022/07/03 00:14:00;;;;;;;4.20;1.80;;;24.30;57.30;;;24.53;40.28;98817.22;4971094;28;115107;-85
2022/07/03 00:16:27;;;;;;;2.83;1.83;;;24.20;57.50;;;24.50;40.65;98822.84;4972472;28;123622;-84
2022/07/03 00:18:54;;;;;;;2.07;1.60;;;24.20;57.60;;;24.44;40.42;98813.97;4971047;28;126722;-84
2022/07/03 00:21:33;;;;;;;2.43;1.80;;;24.20;57.60;;;24.40;40.78;98816.00;4970373;28;113429;-84
2022/07/03 00:24:46;;;;;;;2.67;1.57;;;24.10;57.70;;;24.32;40.62;98811.56;4982812;28;114303;-85
2022/07/03 00:27:15;;;;;;;2.37;1.77;;;24.10;57.80;;;24.30;40.92;98826.06;4984057;28;124227;-85
2022/07/03 00:29:45;;;;;;;3.40;1.70;;;24.00;58.00;;;24.28;40.93;98822.84;4989764;28;123454;-84
2022/07/03 00:32:15;;;;;;;1.73;1.57;;;24.00;58.20;;;24.27;40.95;98826.09;4987492;28;114236;-85
2022/07/03 00:34:42;;;;;;;2.67;1.90;;;24.00;58.40;;;24.23;41.02;98826.91;4984798;28;113682;-85
2022/07/03 00:37:09;;;;;;;2.70;1.40;;;23.90;58.40;;;24.20;41.32;98827.69;4983522;28;124443;-84
2022/07/03 00:39:42;;;;;;;2.30;2.10;;;23.90;58.50;;;24.17;41.28;98822.84;4983498;28;124076;-86
2022/07/03 00:42:10;;;;;;;2.07;1.70;;;23.90;58.70;;;24.16;41.26;98821.25;4971320;28;114536;-85
2022/07/03 00:44:56;;;;;;;2.20;1.83;;;23.90;58.90;;;24.14;41.01;98820.84;4990725;28;114256;-86
2022/07/03 00:47:25;;;;;;;1.90;1.47;;;23.90;59.00;;;24.10;41.38;98817.22;4990161;28;123241;-85
2022/07/03 00:49:55;;;;;;;1.80;1.50;;;23.80;59.00;;;24.07;41.14;98817.19;4985095;28;123777;-85
2022/07/03 00:52:23;;;;;;;2.63;1.60;;;23.70;59.80;;;24.04;41.61;98818.81;4978371;28;113838;-86
2022/07/03 00:54:59;;;;;;;2.30;1.60;;;23.70;59.40;;;24.00;41.61;98823.66;4974645;28;113113;-85
2022/07/03 00:57:29;;;;;;;1.93;1.50;;;23.70;59.60;;;23.95;41.80;98818.41;4976270;28;124113;-84
2022/07/03 00:59:56;;;;;;;2.00;1.73;;;23.60;59.70;;;23.93;41.99;98824.44;4973281;28;124239;-85
2022/07/03 01:03:06;;;;;;;3.10;1.60;;;23.60;59.90;;;23.84;42.18;98817.59;4978989;28;115554;-84
2022/07/03 01:05:40;;;;;;;2.90;1.90;;;23.50;60.80;;;23.79;42.17;98819.59;4962521;28;114393;-85
2022/07/03 01:08:45;;;;;;;2.10;1.70;;;23.50;60.30;;;23.75;42.06;98827.28;4979409;28;124114;-84
2022/07/03 01:11:37;;;;;;;2.87;1.83;;;23.40;60.50;;;23.70;42.37;98813.53;4989210;28;124225;-85
2022/07/03 01:14:23;;;;;;;1.93;1.60;;;23.40;60.50;;;23.69;42.36;98825.19;4976399;28;114371;-85
2022/07/03 01:17:26;;;;;;;1.90;1.53;;;23.40;60.80;;;23.62;42.28;98826.00;4983356;28;114399;-85
2022/07/03 01:20:02;;;;;;;2.50;1.80;;;23.40;60.90;;;23.60;42.67;98812.28;4975991;28;124664;-86
2022/07/03 01:22:49;;;;;;;1.73;1.53;;;23.30;61.10;;;23.55;42.69;98809.06;4981698;28;123471;-85
2022/07/03 01:25:38;;;;;;;2.20;1.83;;;23.30;61.30;;;23.53;42.98;98817.09;4975301;28;114358;-86
2022/07/03 01:28:16;;;;;;;2.13;1.60;;;23.20;61.40;;;23.52;42.88;98809.84;4983121;28;113171;-86
2022/07/03 01:30:54;;;;;;;2.13;1.93;;;23.20;61.70;;;23.53;43.02;98806.63;4980864;28;124329;-86
2022/07/03 01:33:26;;;;;;;7.93;1.77;;;23.20;61.90;;;23.53;43.24;98817.91;4993123;28;122246;-86
2022/07/03 01:36:07;;;;;;;1.93;1.73;;;23.20;62.20;;;23.53;43.08;98811.47;4986715;28;113661;-86
2022/07/03 01:38:42;;;;;;;2.20;1.77;;;23.20;62.40;;;23.53;43.42;98805.81;4968962;28;114069;-86
2022/07/03 01:41:11;;;;;;;1.93;1.70;;;23.20;63.10;;;23.51;43.45;98803.41;4969317;28;123849;-86
2022/07/03 01:43:56;;;;;;;2.70;1.83;;;22.10;61.60;;;23.52;43.50;98804.22;4972745;28;123498;-86
2022/07/03 01:46:35;;;;;;;4.20;1.60;;;23.20;63.00;;;23.53;43.51;98805.81;4969297;28;114292;-86
2022/07/03 01:49:05;;;;;;;2.20;1.80;;;23.20;63.30;;;23.54;43.83;98807.44;4968581;28;113928;-86
2022/07/03 01:51:34;;;;;;;1.90;1.60;;;23.20;63.50;;;23.53;43.96;98805.81;4982717;28;123288;-87
2022/07/03 01:54:03;;;;;;;1.73;1.30;;;23.20;63.70;;;23.53;43.67;98811.47;4970080;28;123794;-86
2022/07/03 01:56:33;;;;;;;2.13;1.77;;;23.20;63.80;;;23.52;44.00;98804.22;4968979;28;115433;-86
2022/07/03 01:59:00;;;;;;;2.80;1.80;;;23.20;64.00;;;23.50;44.09;98807.41;4981625;28;115099;-86
2022/07/03 02:01:48;;;;;;;2.60;1.73;;;23.20;64.00;;;23.49;43.91;98811.47;4978552;28;123399;-86
2022/07/03 02:04:24;;;;;;;2.60;1.70;;;23.10;64.10;;;23.48;43.83;98803.38;4972459;28;123662;-86
2022/07/03 02:07:09;;;;;;;3.70;2.40;;;23.10;64.20;;;23.47;44.13;98815.88;4982947;28;114434;-86
2022/07/03 02:09:48;;;;;;;1.73;1.63;;;23.10;64.40;;;23.45;44.15;98807.81;4975626;28;114132;-86
2022/07/03 02:12:19;;;;;;;3.60;1.80;;;23.10;64.60;;;23.43;44.36;98806.59;4970275;28;122935;-86
2022/07/03 02:15:06;;;;;;;2.03;1.83;;;23.10;64.80;;;23.41;44.37;98797.75;4976052;28;124362;-86
2022/07/03 02:17:53;;;;;;;2.53;2.13;;;23.10;65.00;;;23.33;44.76;98809.00;4985963;28;113568;-86
2022/07/03 02:20:22;;;;;;;3.10;1.87;;;22.90;65.50;;;23.29;44.86;98810.19;4976284;28;113982;-86
2022/07/03 02:23:02;;;;;;;2.43;2.10;;;22.90;65.60;;;23.26;44.73;98800.50;4984236;28;124105;-86
2022/07/03 02:25:37;;;;;;;3.67;2.23;;;22.90;65.90;;;23.18;45.21;98801.69;4976019;28;123805;-86
2022/07/03 02:28:08;;;;;;;3.03;2.20;;;22.80;66.10;;;23.14;45.08;98807.31;4985242;28;113973;-86
2022/07/03 02:30:36;;;;;;;6.77;2.10;;;22.80;66.40;;;23.13;45.27;98810.53;4979356;28;113257;-87
2022/07/03 02:33:06;;;;;;;3.17;2.20;;;22.80;66.50;;;23.11;45.56;98807.31;4976984;28;124486;-86
2022/07/03 02:35:34;;;;;;;4.63;2.20;;;22.80;66.70;;;23.10;45.59;98800.84;4972165;28;124177;-86
2022/07/03 02:38:10;;;;;;;2.63;2.23;;;22.80;67.00;;;23.05;45.46;98801.25;4977845;28;114297;-86
2022/07/03 02:40:47;;;;;;;4.10;2.10;;;22.70;67.40;;;22.97;45.69;98798.78;4992049;28;113783;-86
2022/07/03 02:43:24;;;;;;;3.00;2.40;;;22.60;67.50;;;22.86;46.23;98807.16;4968734;28;123976;-87
2022/07/03 02:46:48;;;;;;;3.60;2.30;;;22.50;68.10;;;22.81;46.13;98801.91;4982241;28;123561;-86
2022/07/03 02:48:58;;;;;;;2.23;1.90;;;22.40;68.20;;;22.77;46.32;98804.69;4979447;28;115571;-86
2022/07/03 02:51:37;;;;;;;3.33;2.47;;;22.40;68.30;;;22.76;46.40;98803.09;4978339;28;114971;-86
2022/07/03 02:54:12;;;;;;;3.03;2.10;;;22.40;68.60;;;22.76;46.60;98803.09;4975527;28;124117;-87
2022/07/03 02:56:56;;;;;;;1.93;1.60;;;22.40;68.70;;;22.76;46.50;98802.28;4993291;28;123525;-86
2022/07/03 02:59:53;;;;;;;2.67;2.03;;;22.40;69.00;;;22.74;46.56;98811.13;4980817;28;114008;-86
2022/07/03 03:02:38;;;;;;;2.50;2.00;;;22.40;69.20;;;22.74;46.67;98815.97;4973480;28;113998;-86
2022/07/03 03:05:30;;;;;;;3.90;2.37;;;22.40;69.30;;;22.72;46.63;98819.16;4970678;28;124151;-87
2022/07/03 03:08:53;;;;;;;3.33;1.70;;;22.40;69.50;;;22.70;46.55;98821.56;4976184;28;123612;-86
2022/07/03 03:11:44;;;;;;;3.90;2.50;;;22.40;69.70;;;22.68;47.00;98821.16;4982019;28;114148;-86
2022/07/03 03:14:14;;;;;;;4.30;2.40;;;22.40;69.90;;;22.68;46.75;98823.97;4983886;28;113004;-87
2022/07/03 03:16:51;;;;;;;2.73;2.00;;;22.40;70.10;;;22.69;47.25;98822.75;4975025;28;124534;-87
2022/07/03 03:19:23;;;;;;;3.60;2.20;;;22.80;70.80;;;22.69;47.23;98831.22;4979562;28;123841;-86
2022/07/03 03:22:00;;;;;;;4.47;2.27;;;22.30;70.40;;;22.70;46.88;98824.38;4982325;28;114309;-86
2022/07/03 03:24:27;;;;;;;3.20;2.20;;;22.40;70.70;;;22.69;47.07;98822.75;4979272;28;114048;-87
2022/07/03 03:26:54;;;;;;;2.37;1.90;;;22.40;70.90;;;22.71;47.08;98826.00;4981505;28;123909;-86
2022/07/03 03:29:21;;;;;;;5.80;2.10;;;22.30;70.90;;;22.70;47.29;98828.03;4983521;28;122937;-86
2022/07/03 03:31:47;;;;;;;2.23;1.73;;;22.40;71.20;;;22.71;46.95;98834.47;4982238;28;114340;-86
2022/07/03 03:34:15;;;;;;;2.50;2.10;;;22.30;71.20;;;22.69;47.18;98834.84;4977413;28;113905;-87
2022/07/03 03:36:42;;;;;;;5.03;1.90;;;22.30;71.50;;;22.71;47.18;98842.91;4981847;28;124139;-87
2022/07/03 03:39:08;;;;;;;2.60;1.77;;;22.30;71.60;;;22.69;47.22;98837.66;4985050;28;123920;-86
2022/07/03 03:41:35;;;;;;;3.73;2.40;;;22.30;71.70;;;22.68;47.12;98835.25;4987474;28;115174;-86
2022/07/03 03:44:01;;;;;;;2.47;2.20;;;22.30;71.90;;;22.68;47.45;98840.88;4996167;28;114792;-87
2022/07/03 03:46:28;;;;;;;2.30;1.80;;;22.30;71.90;;;22.67;47.20;98839.25;4985731;28;124198;-86
2022/07/03 03:48:56;;;;;;;4.90;2.33;;;22.30;72.10;;;22.68;47.37;98843.69;4983462;28;123924;-86
2022/07/03 03:51:22;;;;;;;2.93;1.60;;;22.30;72.30;;;22.69;47.50;98843.28;4975039;28;114006;-86
2022/07/03 03:53:49;;;;;;;2.40;2.20;;;22.30;72.40;;;22.77;47.22;98843.34;4976357;28;114039;-86
2022/07/03 03:56:16;;;;;;;3.23;2.10;;;22.30;72.70;;;22.90;46.95;98848.25;4988057;28;124741;-85
2022/07/03 03:58:43;;;;;;;2.13;1.93;;;22.40;73.00;;;23.03;46.78;98839.50;5002874;28;121879;-86
2022/07/03 04:01:11;;;;;;;2.40;2.20;;;22.40;73.00;;;23.06;46.92;98838.69;4981977;28;114108;-85
2022/07/03 04:03:40;;;;;;;2.90;2.13;;;22.50;73.00;;;23.05;46.57;98848.34;4963575;28;112377;-86
2022/07/03 04:06:07;;;;;;;2.50;1.77;;;22.50;73.10;;;23.18;47.17;98841.16;4979604;28;124127;-86
2022/07/03 04:08:34;;;;;;;2.53;1.80;;;22.50;73.30;;;23.52;46.28;98832.41;4985464;28;123633;-85
2022/07/03 04:11:01;;;;;;;1.93;1.73;;;22.70;73.60;;;23.91;45.30;98848.63;4989366;28;113995;-87
2022/07/03 04:13:27;;;;;;;2.17;1.97;;;22.90;73.70;;;24.17;44.63;98841.81;5000322;28;113420;-85
2022/07/03 04:15:55;;;;;;;2.00;1.70;;;23.00;73.30;;;24.12;44.86;98840.19;4978016;28;123838;-86
2022/07/03 04:18:22;;;;;;;3.07;1.70;;;23.10;72.80;;;23.96;45.23;98845.41;4981974;28;124315;-86
2022/07/03 04:20:49;;;;;;;2.00;1.80;;;23.10;72.60;;;23.83;45.50;98835.72;4983880;28;114580;-86
2022/07/03 04:23:15;;;;;;;2.73;1.73;;;23.10;72.50;;;23.71;45.71;98843.38;4984037;28;114471;-86
2022/07/03 04:25:42;;;;;;;1.73;1.53;;;23.10;72.50;;;23.62;45.89;98847.75;4979928;28;123821;-85
2022/07/03 04:28:09;;;;;;;2.77;2.17;;;23.10;72.50;;;23.55;45.79;98851.34;4987825;28;123833;-86
2022/07/03 04:30:36;;;;;;;3.87;2.10;;;23.10;72.40;;;23.48;46.30;98859.78;4982304;28;115521;-86
2022/07/03 04:33:02;;;;;;;3.10;1.63;;;23.00;72.50;;;23.43;46.49;98857.34;4983309;28;115103;-85
2022/07/03 04:35:29;;;;;;;2.60;1.80;;;23.00;72.60;;;23.40;46.49;98858.97;4980176;28;124239;-87
2022/07/03 04:37:55;;;;;;;2.60;2.00;;;23.00;72.70;;;23.36;46.49;98858.94;4981863;28;124152;-86
2022/07/03 04:40:22;;;;;;;3.77;2.57;;;23.00;72.80;;;23.36;46.75;98863.78;4983702;28;113255;-86
2022/07/03 04:42:48;;;;;;;3.30;2.23;;;22.90;73.10;;;23.30;46.69;98866.19;4973768;28;113797;-86
2022/07/03 04:45:15;;;;;;;10.60;2.20;;;22.80;73.50;;;23.26;46.74;98870.19;4979648;28;124038;-85
2022/07/03 04:47:41;;;;;;;2.30;1.90;;;22.70;73.50;;;23.24;46.78;98878.22;4977137;28;124326;-86
2022/07/03 04:50:08;;;;;;;2.73;1.93;;;22.70;73.50;;;23.21;46.83;98882.63;4984777;28;114193;-85
2022/07/03 04:52:35;;;;;;;2.60;1.87;;;22.70;73.60;;;23.21;46.99;98877.00;4982130;28;113994;-86
2022/07/03 04:55:02;;;;;;;2.60;2.20;;;22.80;73.80;;;23.22;47.06;98884.28;4970889;28;124111;-85
2022/07/03 04:57:28;;;;;;;2.37;1.77;;;22.80;73.90;;;23.24;47.28;98881.88;4992792;28;123140;-85
2022/07/03 04:59:55;;;;;;;2.30;1.83;;;22.80;74.10;;;23.27;47.15;98883.91;4987243;28;113671;-85
2022/07/03 05:02:21;;;;;;;2.53;1.97;;;22.80;74.20;;;23.30;47.14;98883.09;4976365;28;113930;-85
2022/07/03 05:04:48;;;;;;;3.87;1.90;;;22.90;74.40;;;23.31;47.31;98881.88;4977432;28;124022;-86
2022/07/03 05:07:14;;;;;;;2.20;2.00;;;22.90;74.50;;;23.32;47.23;98879.88;4976619;28;123982;-87
2022/07/03 05:09:41;;;;;;;5.33;2.10;;;22.90;74.50;;;23.33;47.25;98885.13;4982354;28;114505;-85
2022/07/03 05:12:07;;;;;;;1.97;1.67;;;22.90;74.60;;;23.35;47.44;98879.09;4974841;28;113707;-86
2022/07/03 05:14:34;;;;;;;3.77;1.73;;;22.90;74.70;;;23.36;47.52;98873.03;4979791;28;123594;-86
2022/07/03 05:17:00;;;;;;;2.60;2.00;;;22.90;74.90;;;23.40;47.40;98875.06;4971246;28;123673;-86
2022/07/03 05:19:27;;;;;;;2.03;1.80;;;22.90;74.80;;;23.43;47.39;98877.09;4976505;28;115320;-85
2022/07/03 05:21:54;;;;;;;3.07;1.70;;;23.00;75.00;;;23.44;47.29;98879.53;4970761;28;115176;-86
2022/07/03 05:24:21;;;;;;;1.97;1.70;;;23.00;75.00;;;23.48;47.37;98876.72;4972919;28;123990;-85
2022/07/03 05:26:47;;;;;;;2.00;1.60;;;23.00;75.20;;;23.52;47.33;98877.53;4978260;28;124097;-85
2022/07/03 05:29:14;;;;;;;2.43;2.10;;;23.00;75.30;;;23.56;47.39;98881.16;4988374;28;114173;-86
2022/07/03 05:31:40;;;;;;;2.70;1.60;;;23.00;75.40;;;23.62;47.08;98887.25;4968845;28;114174;-85
2022/07/03 05:34:08;;;;;;;4.00;1.93;;;23.10;75.40;;;23.68;47.24;98883.63;4972645;28;123723;-85
2022/07/03 05:36:34;;;;;;;3.40;1.63;;;23.10;75.50;;;23.74;47.32;98882.06;4977844;28;123845;-84
2022/07/03 05:41:45;;;;;;;2.33;1.47;;;23.20;75.60;;;23.88;46.90;98886.13;4984188;28;114567;-84
2022/07/03 05:44:12;;;;;;;2.10;1.70;;;23.30;75.70;;;23.96;46.60;98884.94;4976065;28;123322;-84
2022/07/03 05:46:38;;;;;;;1.80;1.43;;;23.30;75.40;;;24.02;46.13;98886.16;4975593;28;124132;-84
2022/07/03 05:49:05;;;;;;;2.60;1.70;;;23.40;75.00;;;24.08;45.79;98881.72;4979759;28;114329;-84
2022/07/03 05:51:31;;;;;;;1.80;1.53;;;23.50;74.80;;;24.14;45.72;98882.94;4980072;28;114333;-84
2022/07/03 05:53:58;;;;;;;3.53;1.70;;;23.50;74.60;;;24.21;45.36;98874.47;4977668;28;124010;-84
2022/07/03 05:56:24;;;;;;;2.47;1.50;;;23.50;74.30;;;24.25;45.23;98874.47;4982681;28;124085;-83
2022/07/03 05:58:51;;;;;;;2.80;1.30;;;23.60;74.00;;;24.28;45.20;98867.22;4970110;28;113534;-85
2022/07/03 06:01:18;;;;;;;2.90;1.87;;;23.60;74.00;;;24.31;45.29;98872.84;4974715;28;113922;-84
2022/07/03 06:03:44;;;;;;;2.03;1.37;;;23.60;74.00;;;24.39;45.35;98873.66;4972076;28;124080;-85
2022/07/03 06:06:11;;;;;;;2.13;1.50;;;23.70;74.20;;;24.50;45.54;98877.31;4973820;28;123769;-85
2022/07/03 06:08:37;;;;;;;1.87;1.43;;;23.80;74.30;;;24.61;45.00;98880.13;4971140;28;115096;-84
2022/07/03 06:11:04;;;;;;;1.70;1.47;;;23.90;74.20;;;24.71;45.09;98878.53;4979995;28;112755;-84
2022/07/03 06:13:30;;;;;;;1.40;1.27;;;24.00;74.30;;;24.81;45.09;98870.03;4974376;28;124418;-85
2022/07/03 06:15:57;;;;;;;2.03;1.63;;;24.10;74.30;;;24.90;44.79;98878.06;4972391;28;123390;-84
2022/07/03 06:18:23;;;;;;;2.20;1.50;;;24.20;74.30;;;25.01;44.78;98876.06;4977344;28;114362;-85
2022/07/03 06:20:50;;;;;;;1.77;1.67;;;24.20;74.30;;;25.08;44.73;98873.19;4978326;28;114044;-85
2022/07/03 06:23:16;;;;;;;1.70;1.30;;;24.30;74.30;;;25.18;44.71;98880.06;4980744;28;124153;-86
2022/07/03 06:25:43;;;;;;;2.10;1.53;;;24.40;74.10;;;25.26;44.55;98872.38;4970651;28;123797;-85
2022/07/03 06:28:09;;;;;;;3.97;1.63;;;24.50;74.10;;;25.34;44.36;98871.91;4983224;28;114309;-85
2022/07/03 06:30:37;;;;;;;3.70;1.83;;;24.60;74.00;;;25.41;44.51;98871.06;4980614;28;113922;-86
2022/07/03 06:33:03;;;;;;;3.33;1.80;;;24.70;73.90;;;25.48;44.45;98868.22;4979696;28;124050;-85
2022/07/03 06:35:29;;;;;;;1.90;1.40;;;24.70;73.80;;;25.55;43.77;98873.84;4979760;28;124513;-85
2022/07/03 06:38:04;;;;;;;3.13;1.90;;;24.80;73.30;;;25.59;43.70;98875.84;4990157;28;113835;-85
2022/07/03 06:40:30;;;;;;;2.03;1.60;;;24.80;73.10;;;25.65;42.88;98877.81;4973204;28;114157;-85
2022/07/03 06:42:57;;;;;;;1.87;1.30;;;24.80;72.40;;;25.70;42.17;98868.09;4981771;28;123836;-85
2022/07/03 06:45:23;;;;;;;1.33;1.20;;;24.90;70.60;;;25.75;41.43;98873.34;4967978;28;122846;-85
2022/07/03 06:47:50;;;;;;;2.93;1.60;;;24.90;69.90;;;25.80;40.54;98875.72;4980167;28;114497;-84
2022/07/03 06:50:16;;;;;;;1.30;1.20;;;25.00;68.70;;;25.83;39.69;98869.25;4978175;28;114094;-85
2022/07/03 06:52:43;;;;;;;1.87;1.07;;;25.00;68.00;;;25.82;39.70;98867.63;4973384;28;123225;-85
2022/07/03 06:55:09;;;;;;;1.40;1.30;;;25.00;66.70;;;25.82;39.62;98876.13;4973207;28;124066;-85
2022/07/03 06:57:36;;;;;;;1.40;1.30;;;25.10;66.00;;;25.88;39.15;98880.16;4979208;28;115239;-85
2022/07/03 07:00:04;;;;;;;2.10;1.20;;;25.10;65.40;;;25.96;39.21;98873.22;4985436;28;115027;-84
2022/07/03 07:02:30;;;;;;;3.57;1.40;;;25.10;65.90;;;26.09;39.38;98875.59;4974514;28;123751;-84
2022/07/03 07:04:57;;;;;;;1.60;1.27;;;25.20;66.00;;;26.20;38.92;98881.97;4969959;28;124512;-85
2022/07/03 07:07:23;;;;;;;1.30;1.10;;;25.40;65.50;;;26.32;38.67;98883.50;4986850;28;114368;-84
2022/07/03 07:09:50;;;;;;;3.20;1.40;;;25.40;64.40;;;26.40;38.15;98877.34;4976399;28;113837;-84
2022/07/03 07:12:17;;;;;;;1.50;1.13;;;25.50;64.30;;;26.49;37.83;98876.06;4975156;28;122996;-83
2022/07/03 07:14:43;;;;;;;1.50;1.17;;;25.60;63.10;;;26.56;36.72;98882.50;4980095;28;124530;-84
2022/07/03 07:17:10;;;;;;;1.03;0.93;;;25.70;62.20;;;26.66;36.25;98884.44;4978279;28;114482;-83
2022/07/03 07:19:36;;;;;;;1.27;1.17;;;25.80;61.00;;;26.78;36.44;98874.59;4976768;28;114633;-83
2022/07/03 07:22:03;;;;;;;3.00;1.23;;;25.80;60.60;;;26.88;36.07;98859.50;4988553;28;124073;-84
2022/07/03 07:24:30;;;;;;;1.83;1.10;;;26.00;60.30;;;26.99;36.52;98872.75;4984484;28;123664;-84
2022/07/03 07:26:56;;;;;;;1.47;1.13;;;26.00;60.50;;;27.08;35.89;98867.38;4978321;28;114004;-84
2022/07/03 07:29:23;;;;;;;1.30;1.03;;;26.20;60.40;;;27.18;35.64;98872.16;4980977;28;113721;-84
2022/07/03 07:31:49;;;;;;;1.50;1.37;;;26.30;59.60;;;27.25;35.30;98872.09;4976756;28;124077;-84
2022/07/03 07:34:16;;;;;;;1.80;1.10;;;26.30;59.10;;;27.30;35.78;98874.47;4976219;28;123132;-84
2022/07/03 07:36:42;;;;;;;3.03;1.13;;;26.40;59.10;;;27.36;35.22;98876.84;4981111;28;114507;-84
2022/07/03 07:39:09;;;;;;;1.30;1.00;;;26.40;58.80;;;27.40;34.66;98878.38;4978954;28;113971;-84
2022/07/03 07:41:38;;;;;;;2.07;1.17;;;26.50;57.80;;;27.45;34.29;98882.78;4956323;28;123970;-84
2022/07/03 07:44:04;;;;;;;5.00;1.20;;;26.50;57.20;;;27.48;34.77;98881.94;4980237;28;124046;-84
2022/07/03 07:46:31;;;;;;;1.73;1.40;;;26.60;57.50;;;27.54;34.54;98881.06;4972111;28;115283;-84
2022/07/03 07:48:58;;;;;;;5.30;1.40;;;26.60;57.60;;;27.62;34.80;98884.59;4973910;28;113974;-84
2022/07/03 07:51:24;;;;;;;1.60;1.17;;;26.70;57.50;;;27.68;34.25;98882.91;4984454;28;123507;-84
2022/07/03 07:53:52;;;;;;;1.73;1.03;;;26.80;56.90;;;27.72;33.76;98882.84;4963935;28;122733;-84
2022/07/03 07:56:18;;;;;;;2.80;1.20;;;26.90;55.40;;;27.75;33.70;98882.81;4974922;28;113520;-85
2022/07/03 07:58:45;;;;;;;1.50;1.10;;;26.90;55.90;;;27.81;33.35;98871.81;4973578;28;113769;-83
2022/07/03 08:06:41;;;;;;;2.90;1.00;;;27.10;54.90;;;27.95;33.02;98871.59;4977867;28;114152;-83
2022/07/03 08:09:08;;;;;;;1.50;1.17;;;27.10;54.60;;;27.98;32.08;98861.41;4985013;28;113943;-83
2022/07/03 08:11:34;;;;;;;2.30;1.30;;;27.20;52.70;;;27.98;31.62;98867.09;4974933;28;124058;-83
2022/07/03 08:14:01;;;;;;;1.63;1.20;;;27.20;52.40;;;27.98;31.49;98869.94;4955203;28;123382;-84
2022/07/03 08:16:27;;;;;;;2.03;1.20;;;27.20;51.60;;;27.97;31.64;98859.81;4985150;28;114391;-84
2022/07/03 08:18:54;;;;;;;2.67;1.10;;;27.20;51.70;;;28.00;31.92;98858.16;4971495;28;114340;-83
2022/07/03 08:21:20;;;;;;;1.73;1.20;;;27.20;51.70;;;28.04;31.87;98853.19;4970618;28;124006;-82
2022/07/03 08:23:47;;;;;;;1.50;1.07;;;27.30;51.70;;;28.09;31.75;98856.34;4980141;28;124144;-83
2022/07/03 08:26:14;;;;;;;3.50;1.03;;;27.30;51.60;;;28.12;32.00;98861.16;4972664;28;114492;-83
2022/07/03 08:28:40;;;;;;;2.13;1.00;;;27.40;52.00;;;28.17;31.50;98860.69;4980055;28;113830;-83
2022/07/03 08:31:07;;;;;;;1.57;1.10;;;27.40;51.50;;;28.19;31.64;98855.38;4982032;28;123314;-84
2022/07/03 08:33:34;;;;;;;1.30;1.00;;;27.50;51.50;;;28.22;31.72;98864.28;4983808;28;124660;-84
2022/07/03 08:36:00;;;;;;;3.40;1.00;;;27.50;51.70;;;28.23;30.72;98857.38;4981383;28;115183;-83
2022/07/03 08:38:33;;;;;;;1.87;1.20;;;27.50;50.10;;;28.26;30.18;98862.19;4978677;28;114994;-84
2022/07/03 08:41:03;;;;;;;1.10;1.00;;;27.50;48.60;;;28.26;30.32;98859.34;4972386;28;123457;-85
2022/07/03 08:43:30;;;;;;;3.93;1.00;;;27.50;49.20;;;28.29;30.40;98853.63;4991997;28;122969;-84
2022/07/03 08:45:59;;;;;;;1.20;1.10;;;27.60;49.10;;;28.32;29.79;98860.47;4973348;28;114861;-85
2022/07/03 08:48:27;;;;;;;2.97;1.30;;;27.60;48.30;;;28.33;29.10;98853.53;5005144;28;113465;-84
2022/07/03 08:50:54;;;;;;;2.70;1.07;;;27.60;47.30;;;28.33;28.71;98847.88;4974413;28;123514;-85
2022/07/03 08:53:21;;;;;;;2.07;1.00;;;27.60;46.60;;;28.35;29.13;98856.75;4976140;28;123372;-85
2022/07/03 08:55:49;;;;;;;1.70;1.00;;;27.60;46.90;;;28.37;28.76;98862.81;4980168;28;116160;-86
2022/07/03 08:58:16;;;;;;;1.20;0.87;;;27.60;46.40;;;28.39;29.07;98854.66;4983047;28;113943;-84
2022/07/03 09:00:44;;;;;;;0.97;0.87;;;27.70;46.40;;;28.38;29.43;98853.84;4971373;28;123876;-85
2022/07/03 09:03:31;;;;;;;2.00;1.07;;;27.70;46.80;;;28.39;29.49;98848.97;4982108;28;123833;-86
2022/07/03 09:05:58;;;;;;;4.00;1.10;;;27.70;46.90;;;28.41;28.81;98844.47;4988641;28;114161;-87
2022/07/03 09:08:28;;;;;;;8.53;1.57;;;27.70;46.00;;;28.42;29.14;98842.41;5000448;28;114757;-80
2022/07/03 09:10:55;;;;;;;1.00;0.80;;;27.70;46.60;;;28.46;29.28;98850.94;4986114;28;124104;-84
2022/07/03 09:13:21;;;;;;;1.77;1.23;;;27.80;46.80;;;28.49;29.30;98848.03;4974746;28;123006;-84
2022/07/03 09:15:47;;;;;;;1.00;0.80;;;27.80;46.50;;;28.50;28.74;98858.13;4983683;28;114347;-86
2022/07/03 09:18:14;;;;;;;3.03;0.90;;;27.80;46.00;;;28.51;28.79;98842.72;4988312;28;113087;-84
2022/07/03 09:20:42;;;;;;;2.40;1.00;;;27.80;45.90;;;28.52;28.75;98844.31;5005028;28;122890;-84
2022/07/03 09:23:20;;;;;;;1.10;0.90;;;27.90;46.00;;;28.50;29.39;98846.78;4972780;28;123862;-84
2022/07/03 09:26:02;;;;;;;6.10;1.17;;;27.90;46.10;;;28.52;29.56;98844.31;4982961;28;115198;-84
2022/07/03 09:28:53;;;;;;;1.83;1.00;;;27.90;46.30;;;28.55;29.84;98839.78;4980485;28;114916;-85
2022/07/03 09:31:26;;;;;;;1.97;1.00;;;28.00;46.60;;;28.56;29.50;98850.75;4981139;28;123956;-85
2022/07/03 09:34:00;;;;;;;1.20;1.10;;;28.00;46.50;;;28.58;29.53;98847.44;4978015;28;124150;-85
2022/07/03 09:36:59;;;;;;;1.70;1.10;;;28.00;46.40;;;28.57;28.89;98840.97;4980385;28;114289;-84
2022/07/03 09:39:30;;;;;;;2.47;1.23;;;28.00;45.80;;;28.58;28.84;98836.88;4944047;28;113825;-84
2022/07/03 09:42:05;;;;;;;2.20;1.27;;;28.00;45.50;;;28.59;28.50;98849.88;4977224;28;123969;-83
2022/07/03 09:44:41;;;;;;;2.03;1.10;;;28.00;44.90;;;28.57;28.57;98840.97;4971651;28;123788;-83
2022/07/03 09:47:24;;;;;;;1.10;0.90;;;28.00;45.00;;;28.58;28.54;98842.56;4981963;28;115395;-83
2022/07/03 09:49:57;;;;;;;1.80;1.10;;;28.00;44.90;;;28.59;28.25;98824.28;4971810;28;113960;-83
2022/07/03 09:52:43;;;;;;;1.20;1.00;;;28.00;44.20;;;28.60;28.52;98833.63;4975501;28;124134;-83
2022/07/03 09:55:10;;;;;;;1.20;1.10;;;28.10;44.50;;;28.62;28.67;98831.94;4981934;28;123758;-83
2022/07/03 09:57:45;;;;;;;1.13;0.90;;;28.10;44.80;;;28.65;28.65;98829.47;4982212;28;112147;-83
2022/07/03 10:00:15;;;;;;;1.10;1.00;;;28.10;44.90;;;28.66;28.81;98819.69;4969335;28;114611;-83
2022/07/03 10:02:53;;;;;;;1.43;0.80;;;28.10;44.80;;;28.68;28.61;98823.72;4967994;28;124530;-83
2022/07/03 10:05:25;;;;;;;2.57;0.90;;;28.10;44.90;;;28.70;28.52;98820.44;4985435;28;123876;-82
2022/07/03 10:07:56;;;;;;;1.40;1.00;;;28.10;44.80;;;28.70;28.75;98820.44;4965816;28;113785;-83
2022/07/03 10:10:25;;;;;;;1.57;1.13;;;28.10;44.90;;;28.71;28.76;98828.53;4994945;28;113675;-83
2022/07/03 10:12:54;;;;;;;1.30;0.80;;;28.10;44.90;;;28.69;29.11;98824.50;4981040;28;124174;-83
2022/07/03 10:15:22;;;;;;;1.43;1.10;;;28.10;44.80;;;28.67;28.72;98821.28;4984405;28;123270;-83
2022/07/03 10:17:52;;;;;;;1.30;1.00;;;28.10;44.90;;;28.66;28.72;98825.38;4982217;28;115286;-84
2022/07/03 10:20:42;;;;;;;1.27;1.07;;;28.10;45.00;;;28.63;29.12;98807.94;4978929;28;115087;-84
2022/07/03 10:23:10;;;;;;;2.70;1.00;;;28.10;45.10;;;28.69;29.64;98813.13;4980667;28;123949;-85
2022/07/03 10:25:41;;;;;;;2.40;1.00;;;28.20;45.90;;;28.72;29.46;98815.94;4963300;28;122585;-82
2022/07/03 10:28:11;;;;;;;2.07;1.40;;;28.20;46.10;;;28.78;29.66;98804.84;4968220;28;114748;-84
2022/07/03 10:30:38;;;;;;;1.03;0.90;;;28.20;46.10;;;28.83;29.41;98818.56;4970553;28;114117;-85
2022/07/03 10:33:04;;;;;;;3.13;1.27;;;28.30;46.00;;;28.83;29.08;98812.88;4971530;28;124998;-85
2022/07/03 10:35:31;;;;;;;2.00;1.60;;;28.30;45.30;;;28.81;29.26;98810.47;4981220;28;124178;-82
2022/07/03 10:38:00;;;;;;;1.30;1.10;;;28.30;45.40;;;28.81;29.07;98818.19;4998016;28;113349;-82